Time,TemperatureF,DewpointF,PressureIn,WindDirection,WindDirectionDegrees,WindSpeedMPH,WindSpeedGustMPH,Humidity,HourlyPrecipIn,Conditions,Clouds,dailyrainin,SolarRadiationWatts/m^2,SoftwareType,DateUTC
2013-05-08 00:02:00,61.0,49.0,-100.00,SSW,207,3.0,6.0,65,0.00,,,0.21,0.000000,,2013-05-08 04:02:00,
2013-05-08 00:13:00,61.0,49.0,-100.00,SSW,207,3.0,6.0,65,0.00,,,0.21,0.000000,,2013-05-08 04:13:00,
2013-05-08 00:23:00,61.0,49.0,-100.00,SSW,207,3.0,6.0,65,0.00,,,0.21,0.000000,,2013-05-08 04:23:00,
2013-05-08 00:53:00,61.0,49.0,-100.00,SSW,196,2.0,6.0,64,0.00,,,0.18,0.000000,,2013-05-08 04:53:00,
2013-05-08 01:02:00,61.0,49.0,-100.00,SSW,196,2.0,6.0,64,0.00,,,0.18,0.000000,,2013-05-08 05:02:00,
2013-05-08 01:12:00,61.0,49.0,-100.00,SSW,196,2.0,6.0,64,0.00,,,0.18,0.000000,,2013-05-08 05:12:00,
2013-05-08 01:22:00,61.0,49.0,-100.00,SSW,196,2.0,6.0,64,0.00,,,0.18,0.000000,,2013-05-08 05:22:00,
2013-05-08 01:52:00,61.0,49.0,-100.00,SSW,213,2.0,6.0,65,0.00,,,0.18,0.000000,,2013-05-08 05:52:00,
2013-05-08 02:02:00,61.0,49.0,-100.00,SSW,213,2.0,6.0,65,0.00,,,0.18,0.000000,,2013-05-08 06:02:00,
2013-05-08 02:12:00,61.0,49.0,-100.00,SSW,213,2.0,6.0,65,0.00,,,0.18,0.000000,,2013-05-08 06:12:00,
2013-05-08 02:22:00,61.0,49.0,-100.00,SSW,213,2.0,6.0,65,0.00,,,0.18,0.000000,,2013-05-08 06:22:00,
2013-05-08 02:52:00,60.0,48.0,-100.00,SW,222,1.0,7.0,65,0.00,,,0.18,0.000000,,2013-05-08 06:52:00,
2013-05-08 03:02:00,60.0,48.0,-100.00,SW,222,1.0,7.0,65,0.00,,,0.18,0.000000,,2013-05-08 07:02:00,
2013-05-08 03:11:00,60.0,48.0,-100.00,SW,222,1.0,7.0,65,0.00,,,0.18,0.000000,,2013-05-08 07:11:00,
2013-05-08 03:22:00,60.0,48.0,-100.00,SW,222,1.0,7.0,65,0.00,,,0.18,0.000000,,2013-05-08 07:22:00,
2013-05-08 03:52:00,56.0,46.0,-100.00,West,272,0.0,2.0,70,0.00,,,0.18,0.000000,,2013-05-08 07:52:00,
2013-05-08 04:02:00,56.0,46.0,-100.00,West,272,0.0,2.0,70,0.00,,,0.18,0.000000,,2013-05-08 08:02:00,
2013-05-08 04:12:00,56.0,46.0,-100.00,West,272,0.0,2.0,70,0.00,,,0.18,0.000000,,2013-05-08 08:12:00,
2013-05-08 04:22:00,56.0,46.0,-100.00,West,272,0.0,2.0,70,0.00,,,0.18,0.000000,,2013-05-08 08:22:00,
2013-05-08 04:52:00,57.0,48.0,-100.00,West,274,1.0,2.0,71,0.00,,,0.18,0.000000,,2013-05-08 08:52:00,
2013-05-08 05:02:00,57.0,48.0,-100.00,West,274,1.0,2.0,71,0.00,,,0.18,0.000000,,2013-05-08 09:02:00,
2013-05-08 05:11:00,57.0,48.0,-100.00,West,274,1.0,2.0,71,0.00,,,0.18,0.000000,,2013-05-08 09:11:00,
2013-05-08 05:21:00,57.0,48.0,-100.00,West,274,1.0,2.0,71,0.00,,,0.18,0.000000,,2013-05-08 09:21:00,
2013-05-08 05:53:00,56.0,47.0,-100.00,SW,230,2.0,2.0,72,0.00,,,0.18,0.000000,,2013-05-08 09:53:00,
2013-05-08 06:02:00,56.0,47.0,-100.00,SW,230,2.0,2.0,72,0.00,,,0.18,0.000000,,2013-05-08 10:02:00,
2013-05-08 06:12:00,56.0,47.0,-100.00,SW,230,2.0,2.0,72,0.00,,,0.18,0.000000,,2013-05-08 10:12:00,
2013-05-08 06:23:00,56.0,47.0,-100.00,SW,230,2.0,2.0,72,0.00,,,0.18,0.000000,,2013-05-08 10:23:00,
2013-05-08 06:53:00,55.0,46.0,-100.00,WSW,242,2.0,2.0,72,0.00,,,0.18,2.000000,,2013-05-08 10:53:00,
2013-05-08 07:02:00,55.0,46.0,-100.00,WSW,242,2.0,2.0,72,0.00,,,0.18,2.000000,,2013-05-08 11:02:00,
2013-05-08 07:12:00,55.0,46.0,-100.00,WSW,242,2.0,2.0,72,0.00,,,0.18,2.000000,,2013-05-08 11:12:00,
2013-05-08 07:22:00,55.0,46.0,-100.00,WSW,242,2.0,2.0,72,0.00,,,0.18,2.000000,,2013-05-08 11:22:00,
2013-05-08 07:52:00,61.0,52.0,-100.00,WSW,250,1.0,2.0,71,0.00,,,0.18,67.000000,,2013-05-08 11:52:00,
2013-05-08 08:02:00,61.0,52.0,-100.00,WSW,250,1.0,2.0,71,0.00,,,0.18,67.000000,,2013-05-08 12:02:00,
2013-05-08 08:11:00,61.0,52.0,-100.00,WSW,250,1.0,2.0,71,0.00,,,0.18,67.000000,,2013-05-08 12:11:00,
2013-05-08 08:21:00,61.0,52.0,-100.00,WSW,250,1.0,2.0,71,0.00,,,0.18,67.000000,,2013-05-08 12:21:00,
2013-05-08 08:52:00,65.0,52.0,-100.00,WSW,257,3.0,6.0,63,0.00,,,0.18,76.000000,,2013-05-08 12:52:00,
2013-05-08 09:01:00,65.0,52.0,-100.00,WSW,257,3.0,6.0,63,0.00,,,0.18,76.000000,,2013-05-08 13:01:00,
2013-05-08 09:12:00,65.0,52.0,-100.00,WSW,257,3.0,6.0,63,0.00,,,0.18,76.000000,,2013-05-08 13:12:00,
2013-05-08 09:21:00,65.0,52.0,-100.00,WSW,257,3.0,6.0,63,0.00,,,0.18,76.000000,,2013-05-08 13:21:00,
2013-05-08 09:52:00,67.0,54.0,-100.00,ESE,122,3.0,7.0,62,0.00,,,0.18,128.000000,,2013-05-08 13:52:00,
2013-05-08 10:02:00,67.0,54.0,-100.00,ESE,122,3.0,7.0,62,0.00,,,0.18,128.000000,,2013-05-08 14:02:00,
2013-05-08 10:12:00,67.0,54.0,-100.00,ESE,122,3.0,7.0,62,0.00,,,0.18,128.000000,,2013-05-08 14:12:00,
2013-05-08 10:22:00,67.0,54.0,-100.00,ESE,122,3.0,7.0,62,0.00,,,0.18,128.000000,,2013-05-08 14:22:00,
2013-05-08 10:52:00,69.0,55.0,-100.00,ESE,123,5.0,8.0,60,0.00,,,0.18,686.000000,,2013-05-08 14:52:00,
2013-05-08 11:02:00,69.0,55.0,-100.00,ESE,123,5.0,8.0,60,0.00,,,0.18,686.000000,,2013-05-08 15:02:00,
2013-05-08 11:11:00,69.0,55.0,-100.00,ESE,123,5.0,8.0,60,0.00,,,0.18,686.000000,,2013-05-08 15:11:00,
2013-05-08 11:22:00,69.0,55.0,-100.00,ESE,123,5.0,8.0,60,0.00,,,0.18,686.000000,,2013-05-08 15:22:00,
2013-05-08 11:53:00,70.0,55.0,-100.00,SE,142,6.0,11.0,60,0.00,,,0.18,841.000000,,2013-05-08 15:53:00,
2013-05-08 12:03:00,70.0,55.0,-100.00,SE,142,6.0,11.0,60,0.00,,,0.18,841.000000,,2013-05-08 16:03:00,
2013-05-08 12:13:00,70.0,55.0,-100.00,SE,142,6.0,11.0,60,0.00,,,0.18,841.000000,,2013-05-08 16:13:00,
2013-05-08 12:23:00,70.0,55.0,-100.00,SE,142,6.0,11.0,60,0.00,,,0.18,841.000000,,2013-05-08 16:23:00,
2013-05-08 12:52:00,71.0,56.0,-100.00,SE,145,7.0,13.0,59,0.00,,,-99.99,933.000000,,2013-05-08 16:52:00,
2013-05-08 13:02:00,71.0,56.0,-100.00,SE,145,7.0,13.0,59,0.00,,,-99.99,933.000000,,2013-05-08 17:02:00,
2013-05-08 13:12:00,71.0,56.0,-100.00,SE,145,7.0,13.0,59,0.00,,,-99.99,933.000000,,2013-05-08 17:12:00,
2013-05-08 13:22:00,71.0,56.0,-100.00,SE,145,7.0,13.0,59,0.00,,,-99.99,933.000000,,2013-05-08 17:22:00,
2013-05-08 13:52:00,71.0,56.0,-100.00,SE,132,7.0,14.0,59,0.00,,,-99.99,963.000000,,2013-05-08 17:52:00,
2013-05-08 14:02:00,71.0,56.0,-100.00,SE,132,7.0,14.0,59,0.00,,,-99.99,963.000000,,2013-05-08 18:02:00,
2013-05-08 14:12:00,71.0,56.0,-100.00,SE,132,7.0,14.0,59,0.00,,,-99.99,963.000000,,2013-05-08 18:12:00,
2013-05-08 14:21:00,71.0,56.0,-100.00,SE,132,7.0,14.0,59,0.00,,,-99.99,963.000000,,2013-05-08 18:21:00,
2013-05-08 14:52:00,71.0,54.0,-100.00,SSE,148,8.0,14.0,56,0.00,,,0.18,948.000000,,2013-05-08 18:52:00,
2013-05-08 15:02:00,71.0,54.0,-100.00,SSE,148,8.0,14.0,56,0.00,,,0.18,948.000000,,2013-05-08 19:02:00,
2013-05-08 15:11:00,71.0,54.0,-100.00,SSE,148,8.0,14.0,56,0.00,,,0.18,948.000000,,2013-05-08 19:11:00,
2013-05-08 15:22:00,71.0,54.0,-100.00,SSE,148,8.0,14.0,56,0.00,,,0.18,948.000000,,2013-05-08 19:22:00,
2013-05-08 15:52:00,72.0,55.0,-100.00,SE,143,6.0,14.0,56,0.00,,,0.18,514.000000,,2013-05-08 19:52:00,
2013-05-08 16:02:00,72.0,55.0,-100.00,SE,143,6.0,14.0,56,0.00,,,0.18,514.000000,,2013-05-08 20:02:00,
2013-05-08 16:12:00,72.0,55.0,-100.00,SE,143,6.0,14.0,56,0.00,,,0.18,514.000000,,2013-05-08 20:12:00,
2013-05-08 16:22:00,72.0,55.0,-100.00,SE,143,6.0,14.0,56,0.00,,,0.18,514.000000,,2013-05-08 20:22:00,
2013-05-08 16:52:00,71.0,55.0,-100.00,SE,138,6.0,14.0,57,0.00,,,0.13,737.000000,,2013-05-08 20:52:00,
2013-05-08 17:02:00,71.0,55.0,-100.00,SE,138,6.0,14.0,57,0.00,,,0.13,737.000000,,2013-05-08 21:02:00,
2013-05-08 17:12:00,71.0,55.0,-100.00,SE,138,6.0,14.0,57,0.00,,,0.13,737.000000,,2013-05-08 21:12:00,
2013-05-08 17:21:00,71.0,55.0,-100.00,SE,138,6.0,14.0,57,0.00,,,0.13,737.000000,,2013-05-08 21:21:00,
2013-05-08 17:53:00,71.0,54.0,-100.00,SSE,158,5.0,13.0,54,0.00,,,0.02,509.000000,,2013-05-08 21:53:00,
2013-05-08 18:03:00,71.0,54.0,-100.00,SSE,158,5.0,13.0,54,0.00,,,0.02,509.000000,,2013-05-08 22:03:00,
2013-05-08 18:12:00,71.0,54.0,-100.00,SSE,158,5.0,13.0,54,0.00,,,0.02,509.000000,,2013-05-08 22:12:00,
2013-05-08 18:22:00,71.0,54.0,-100.00,SSE,158,5.0,13.0,54,0.00,,,0.02,509.000000,,2013-05-08 22:22:00,
2013-05-08 18:53:00,70.0,54.0,-100.00,SSE,166,5.0,14.0,57,0.00,,,0.00,115.000000,,2013-05-08 22:53:00,
2013-05-08 19:02:00,70.0,54.0,-100.00,SSE,166,5.0,14.0,57,0.00,,,0.00,115.000000,,2013-05-08 23:02:00,
2013-05-08 19:12:00,70.0,54.0,-100.00,SSE,166,5.0,14.0,57,0.00,,,0.00,115.000000,,2013-05-08 23:12:00,
2013-05-08 19:22:00,70.0,54.0,-100.00,SSE,166,5.0,14.0,57,0.00,,,0.00,115.000000,,2013-05-08 23:22:00,
2013-05-08 19:53:00,67.0,54.0,-100.00,South,185,4.0,11.0,63,0.00,,,0.00,94.000000,,2013-05-08 23:53:00,
2013-05-08 20:02:00,67.0,54.0,-100.00,South,185,4.0,11.0,63,0.00,,,0.00,94.000000,,2013-05-09 00:02:00,
2013-05-08 20:12:00,67.0,54.0,-100.00,South,185,4.0,11.0,63,0.00,,,0.00,94.000000,,2013-05-09 00:12:00,
2013-05-08 20:21:00,67.0,54.0,-100.00,South,185,4.0,11.0,63,0.00,,,0.00,94.000000,,2013-05-09 00:21:00,
2013-05-08 20:52:00,66.0,53.0,-100.00,WSW,242,4.0,9.0,62,0.00,,,0.00,6.000000,,2013-05-09 00:52:00,
2013-05-08 21:01:00,66.0,53.0,-100.00,WSW,242,4.0,9.0,62,0.00,,,0.00,6.000000,,2013-05-09 01:01:00,
2013-05-08 21:12:00,66.0,53.0,-100.00,WSW,242,4.0,9.0,62,0.00,,,0.00,6.000000,,2013-05-09 01:12:00,
2013-05-08 21:22:00,66.0,53.0,-100.00,WSW,242,4.0,9.0,62,0.00,,,0.00,6.000000,,2013-05-09 01:22:00,
2013-05-08 21:53:00,66.0,53.0,-100.00,SSW,210,3.0,9.0,63,0.00,,,0.00,0.000000,,2013-05-09 01:53:00,
2013-05-08 22:02:00,66.0,53.0,-100.00,SSW,210,3.0,9.0,63,0.00,,,0.00,0.000000,,2013-05-09 02:02:00,
2013-05-08 22:12:00,66.0,53.0,-100.00,SSW,210,3.0,9.0,63,0.00,,,0.00,0.000000,,2013-05-09 02:12:00,
2013-05-08 22:22:00,66.0,53.0,-100.00,SSW,210,3.0,9.0,63,0.00,,,0.00,0.000000,,2013-05-09 02:22:00,
2013-05-08 23:02:00,66.0,53.0,-100.00,SW,231,4.0,10.0,64,0.00,,,0.00,0.000000,,2013-05-09 03:02:00,
2013-05-08 23:11:00,66.0,53.0,-100.00,SW,231,4.0,10.0,64,0.00,,,0.00,0.000000,,2013-05-09 03:11:00,
2013-05-08 23:21:00,66.0,53.0,-100.00,SW,231,4.0,10.0,64,0.00,,,0.00,0.000000,,2013-05-09 03:21:00,
2013-05-08 23:53:00,65.0,53.0,-100.00,WSW,238,4.0,12.0,64,0.00,,,0.00,0.000000,,2013-05-09 03:53:00,